Date,TemperatureHighF,TemperatureAvgF,TemperatureLowF,DewpointHighF,DewpointAvgF,DewpointLowF,HumidityHigh,HumidityAvg,HumidityLow,PressureMaxIn,PressureMinIn,WindSpeedMaxMPH,WindSpeedAvgMPH,GustSpeedMaxMPH,PrecipitationSumIn
2013-1-1,39.2,35.6,27.0,31.3,28.7,18.5,81,76,68,29.77,29.60,8,1,10,0.00
2013-1-2,34.5,26.5,21.6,21.7,17.6,14.9,77,69,55,29.94,29.72,10,1,12,0.00
2013-1-3,33.4,26.1,19.6,21.0,17.9,14.4,82,71,55,29.94,29.83,9,0,11,0.00
2013-1-4,37.8,32.5,27.5,25.5,23.2,20.1,75,69,60,29.86,29.74,12,2,16,0.00
2013-1-5,42.1,32.7,28.2,27.5,23.3,20.5,79,69,54,30.07,29.80,10,1,14,0.00
2013-1-6,47.8,37.6,31.3,34.2,29.5,24.3,92,74,52,29.96,29.73,7,0,9,0.00
2013-1-7,48.4,37.8,30.9,33.3,29.2,25.5,82,72,50,30.14,29.82,7,0,10,0.00
2013-1-8,50.5,36.5,27.1,36.7,29.4,23.4,87,77,58,30.14,30.08,8,0,10,0.00
2013-1-9,49.6,38.7,27.9,40.3,33.9,25.5,93,83,69,30.12,29.90,8,0,9,0.00
2013-1-10,51.1,41.0,35.6,35.1,30.0,27.3,77,65,50,30.27,30.02,8,1,13,0.00
2013-1-11,45.0,39.6,31.6,41.9,34.2,25.5,94,81,68,30.25,29.82,5,0,5,0.00
2013-1-12,55.9,45.0,41.4,51.4,43.0,40.3,96,93,80,29.91,29.82,0,0,0,0.00
2013-1-13,48.0,45.4,42.4,46.9,44.2,41.0,96,96,95,29.89,29.73,1,0,1,0.00
2013-1-14,52.7,48.4,38.8,51.3,45.0,35.8,97,88,64,30.03,29.66,6,0,8,0.00
2013-1-15,38.8,36.2,32.9,36.7,31.9,29.3,94,85,75,30.08,29.93,5,0,7,0.00
2013-1-16,35.8,33.6,31.8,34.2,32.1,30.2,96,95,91,29.93,29.55,9,0,12,0.00
2013-1-17,42.4,37.5,34.5,34.7,31.7,29.1,95,80,70,29.84,29.67,10,1,11,0.00
2013-1-18,36.0,29.6,25.5,30.0,18.7,12.0,88,65,46,30.21,29.73,12,1,19,0.00
2013-1-19,54.7,38.5,25.7,32.9,26.8,15.1,82,64,42,30.13,29.67,12,2,18,0.00
2013-1-20,53.4,40.6,27.3,35.8,26.4,13.5,77,58,35,29.79,29.49,11,3,19,0.00
2013-1-21,31.6,26.7,20.7,21.6,15.2,11.3,79,62,51,29.84,29.60,12,0,16,0.00
2013-1-22,23.4,17.0,10.9,13.6,2.9,-1.3,68,54,41,29.97,29.61,10,4,18,0.00
2013-1-23,20.8,12.9,9.1,7.2,2.1,-1.7,78,62,49,30.01,29.89,8,1,11,0.00
2013-1-24,28.2,17.2,10.4,9.7,5.1,1.6,81,61,37,30.17,29.84,11,1,18,0.00
2013-1-25,21.7,15.4,10.6,13.5,6.3,0.9,89,68,50,30.18,29.80,10,0,12,0.00
2013-1-26,28.8,17.9,8.8,15.6,10.8,5.9,91,75,54,30.13,29.78,10,1,13,0.00
2013-1-27,36.5,22.2,10.9,21.4,13.7,6.6,84,71,52,30.28,30.12,7,0,11,0.00
2013-1-28,34.5,30.3,23.2,33.1,26.7,16.3,95,87,72,30.23,29.76,8,0,9,0.00
2013-1-29,51.6,43.4,33.6,47.1,41.1,1.6,96,92,84,29.88,29.75,0,0,0,0.00
2013-1-30,65.8,53.1,41.5,60.4,51.0,40.1,96,93,82,29.78,29.08,16,2,21,0.00
2013-1-31,61.3,41.8,27.0,59.5,32.3,13.1,96,70,48,29.58,28.84,18,6,37,0.00
2013-2-1,31.3,26.2,21.4,20.7,13.0,7.9,84,58,45,29.96,29.55,10,2,19,0.00
2013-2-2,28.0,23.4,15.4,20.7,13.5,6.3,89,67,47,30.04,29.76,6,1,10,0.00
2013-2-3,31.1,25.0,19.0,24.4,21.1,16.3,91,86,73,29.76,29.54,4,0,4,0.00
2013-2-4,29.7,24.8,18.7,21.6,14.5,10.9,80,65,54,29.76,29.65,8,1,12,0.00
2013-2-5,32.2,29.2,26.8,27.9,25.4,21.4,92,87,80,29.69,29.61,0,0,0,0.00
2013-2-6,39.7,30.7,24.6,28.9,24.7,16.2,94,80,58,30.08,29.65,10,1,14,0.00
2013-2-7,35.2,28.4,21.7,22.3,17.7,13.6,76,65,51,30.21,30.00,3,0,3,0.00
2013-2-8,34.5,32.4,-3.3,32.9,29.7,-5.1,95,91,73,30.00,29.43,10,1,14,0.00
2013-2-9,34.5,26.6,19.0,30.6,19.0,10.0,95,74,53,30.11,29.52,12,2,18,0.00
2013-2-10,46.2,26.1,13.3,22.1,14.2,8.6,83,63,34,30.21,30.03,6,0,11,0.00
2013-2-11,47.3,37.1,30.9,46.2,33.9,22.1,96,89,48,30.04,29.41,1,0,1,0.00
2013-2-12,45.1,37.6,30.0,32.0,27.5,23.9,78,67,57,29.73,29.57,8,2,14,0.00
2013-2-13,44.8,32.0,24.4,31.1,26.0,21.2,92,80,58,29.70,29.43,2,0,2,0.00
2013-2-14,47.8,36.6,28.9,36.0,30.5,27.1,95,80,57,29.75,29.46,6,0,6,0.00
2013-2-15,57.0,44.8,31.6,40.1,34.4,29.1,92,69,48,29.75,29.65,9,1,11,0.00
2013-2-16,38.8,33.0,28.2,31.8,26.9,14.0,94,79,55,29.73,29.51,9,1,14,0.00
2013-2-17,31.6,25.4,18.7,18.3,11.4,4.3,75,55,48,29.81,29.48,11,4,20,0.00
2013-2-18,36.5,25.9,17.2,18.5,11.5,5.0,64,55,43,30.04,29.81,9,2,17,0.00
2013-2-19,43.3,36.1,28.4,40.6,29.7,14.7,95,78,55,29.92,29.44,18,1,18,0.00
2013-2-20,33.6,27.8,22.8,26.6,16.8,12.2,76,63,54,29.78,29.51,10,4,16,0.00
2013-2-21,36.3,27.7,22.1,21.6,16.6,12.2,73,63,52,30.04,29.75,10,3,17,0.00
2013-2-22,38.3,29.8,20.5,28.8,21.8,14.5,85,73,60,30.13,29.96,5,0,5,0.00
2013-2-23,44.8,38.3,32.5,43.3,36.5,28.8,95,94,85,29.98,29.55,4,0,4,0.00
2013-2-24,45.7,36.6,28.0,39.4,31.1,21.0,96,81,64,29.77,29.52,10,1,21,0.00
2013-2-25,46.6,35.3,26.4,33.6,26.3,21.0,84,71,53,29.97,29.77,9,0,11,0.00
2013-2-26,46.0,35.6,26.2,34.7,29.9,22.5,94,80,62,29.98,29.52,11,1,14,0.00
2013-2-27,49.8,43.2,36.3,45.5,39.6,34.7,96,88,74,29.53,29.24,10,1,19,0.00
2013-2-28,46.2,40.5,33.4,37.9,33.5,28.4,88,77,55,29.41,29.32,9,1,11,0.00
2013-3-1,45.0,36.7,30.9,34.5,30.1,26.4,92,78,62,29.56,29.38,10,1,15,0.00
2013-3-2,42.4,34.0,29.8,29.8,25.1,21.9,78,70,58,29.56,29.47,12,2,14,0.00
2013-3-3,38.5,30.9,24.1,24.8,21.1,17.8,78,67,57,29.55,29.46,10,2,15,0.00
2013-3-4,42.1,32.9,28.2,26.1,21.9,18.1,75,64,52,29.69,29.55,10,3,17,0.00
2013-3-5,53.8,38.4,29.1,33.3,26.8,22.5,77,64,44,29.77,29.67,8,1,14,0.00
2013-3-6,39.7,36.6,33.1,36.1,32.2,26.6,92,84,75,29.69,29.51,14,2,25,0.04
2013-3-7,47.8,39.1,34.3,33.1,29.1,26.4,83,68,53,29.83,29.68,11,2,17,0.00
2013-3-8,42.6,34.6,29.1,32.9,28.7,25.0,92,80,66,29.97,29.78,12,3,20,0.04
2013-3-9,68.5,45.4,28.8,36.1,25.9,18.5,77,51,22,30.04,29.94,14,1,14,0.00
2013-3-10,61.9,48.7,33.6,36.9,34.1,26.6,85,60,37,30.09,29.99,8,0,9,0.00
2013-3-11,60.4,47.5,36.3,47.5,41.7,32.4,94,82,54,30.03,29.78,10,0,12,0.00
2013-3-12,57.0,50.5,38.8,55.8,47.9,34.3,96,91,82,29.79,29.42,14,2,24,0.04
2013-3-13,50.5,39.4,32.5,36.9,30.7,24.1,87,72,52,29.69,29.57,9,2,16,0.00
2013-3-14,41.2,33.7,26.4,24.1,20.1,14.4,89,59,42,29.74,29.65,11,3,19,0.00
2013-3-15,51.4,37.7,0.3,34.5,23.6,-12.8,67,57,46,29.75,29.47,9,1,13,0.00
2013-3-16,43.5,35.6,31.8,33.4,29.4,24.4,93,79,61,29.67,29.50,4,0,4,0.00
2013-3-17,42.1,32.4,25.9,30.4,24.9,19.6,93,75,56,30.03,29.65,8,0,9,0.04
2013-3-18,38.1,31.3,26.2,32.7,23.7,14.9,95,75,56,30.09,29.64,8,0,9,0.04
2013-3-19,51.4,39.5,34.0,43.3,32.9,21.9,96,79,48,29.64,29.44,9,1,17,0.00
2013-3-20,47.3,37.4,29.8,27.9,22.3,19.2,71,55,38,29.66,29.52,10,2,14,0.00
2013-3-21,39.9,32.4,26.8,27.9,22.0,14.0,91,67,46,29.57,29.40,9,1,12,0.00
2013-3-22,41.9,32.3,25.5,26.8,21.5,14.7,77,65,53,29.67,29.50,10,2,13,0.00
2013-3-23,49.3,37.1,28.9,30.4,23.4,20.1,71,58,42,29.70,29.60,10,2,17,0.00
2013-3-24,50.7,38.3,27.1,28.8,23.4,18.7,74,56,39,29.71,29.42,7,0,11,0.00
2013-3-25,37.0,34.8,32.5,33.8,30.5,25.7,95,86,65,29.44,29.22,12,0,19,0.09
2013-3-26,52.9,40.2,33.1,40.5,33.4,29.8,96,79,47,29.65,29.38,10,1,13,0.00
2013-3-27,52.7,40.0,30.9,35.1,31.6,28.9,93,74,47,29.77,29.64,11,1,19,0.00
2013-3-28,50.0,40.6,32.4,34.9,30.7,27.5,84,69,52,29.89,29.74,10,1,13,0.00
2013-3-29,54.7,43.4,32.2,36.9,31.2,26.4,80,63,47,29.92,29.83,8,1,13,0.00
2013-3-30,60.6,45.9,31.3,35.8,30.4,26.8,85,58,35,29.94,29.83,8,0,13,0.00
2013-3-31,57.0,46.4,37.2,46.0,37.3,28.0,96,73,45,29.87,29.45,8,0,15,0.03
2013-4-1,61.9,47.8,35.2,47.3,37.9,18.0,96,71,43,29.68,29.42,14,2,18,0.00
2013-4-2,45.3,36.5,28.8,24.3,18.7,15.8,60,49,36,29.85,29.68,10,2,16,0.00
2013-4-3,49.5,36.7,28.2,25.9,18.6,14.4,60,48,35,30.05,29.85,10,2,17,0.00
2013-4-4,56.1,40.0,25.7,30.4,22.4,14.2,65,50,34,30.14,29.82,8,1,10,0.00
2013-4-5,65.5,49.1,37.0,36.3,30.7,23.4,83,53,29,29.83,29.50,10,2,14,0.00
2013-4-6,59.5,43.7,31.3,30.6,23.6,18.0,68,47,26,30.05,29.76,10,1,13,0.00
2013-4-7,66.0,50.4,37.6,45.5,37.1,26.6,77,62,46,30.04,29.73,11,2,16,0.00
2013-4-8,82.0,63.7,49.5,54.9,49.0,43.2,80,61,38,29.83,29.70,8,1,13,0.00
2013-4-9,83.8,71.8,59.4,58.6,53.9,50.9,75,55,34,29.76,29.64,9,1,14,0.00
2013-4-10,87.6,72.3,61.0,65.5,58.4,54.0,95,64,44,29.69,29.52,14,1,25,0.09
2013-4-11,66.6,59.0,48.2,63.9,55.2,43.9,97,88,72,29.70,29.53,8,0,9,0.00
2013-4-12,48.2,43.9,41.9,44.4,42.3,40.6,96,94,85,29.68,29.43,9,1,12,0.00
2013-4-13,63.0,49.8,37.9,49.3,40.5,36.9,98,73,46,29.72,29.50,8,1,12,0.00
2013-4-14,63.1,51.7,38.8,41.7,37.5,32.2,87,60,41,29.91,29.71,9,1,16,0.00
2013-4-15,64.0,51.7,44.8,47.8,39.1,32.9,77,63,54,30.09,29.91,7,0,8,0.00
2013-4-16,72.5,59.3,45.1,59.7,51.4,41.7,89,76,61,30.08,29.86,10,1,14,0.00
2013-4-17,78.8,63.5,54.0,56.8,50.3,39.2,94,66,31,30.02,29.84,6,0,8,0.00
2013-4-18,60.6,55.4,50.7,56.5,50.2,42.3,94,83,69,30.04,29.80,5,0,6,0.06
2013-4-19,79.5,65.8,55.8,68.2,61.7,54.5,96,87,65,29.80,29.37,13,2,15,0.14
2013-4-20,58.1,49.7,42.1,46.0,36.0,27.9,95,61,42,30.07,29.54,12,2,16,0.00
2013-4-21,60.6,45.5,31.8,37.0,28.8,22.1,69,53,37,30.34,30.06,8,0,11,0.00
2013-4-22,55.2,45.0,32.9,38.8,33.7,28.0,83,66,47,30.35,30.18,8,0,11,0.00
2013-4-23,51.4,45.7,39.9,44.4,39.2,33.8,90,78,68,30.18,29.88,7,0,8,0.00
2013-4-24,73.8,57.0,39.0,58.8,49.5,37.0,94,77,57,29.88,29.55,9,0,13,0.00
2013-4-25,67.1,53.6,41.2,57.4,37.0,31.8,85,55,30,30.02,29.63,9,2,18,0.00
2013-4-26,69.3,54.2,40.6,44.2,36.0,30.6,78,52,31,30.17,30.02,8,0,10,0.00
2013-4-27,77.2,57.3,38.3,48.4,37.3,30.2,76,49,30,30.18,30.02,6,0,8,0.00
2013-4-28,73.0,58.8,45.9,47.3,40.4,34.9,77,52,35,30.05,29.92,9,0,11,0.00
2013-4-29,56.7,53.4,49.6,55.4,50.7,43.7,96,91,70,29.96,29.86,1,0,1,0.00
2013-4-30,71.1,58.4,47.3,54.5,46.5,33.1,97,69,36,30.06,29.91,10,0,11,0.00
2013-5-1,72.3,56.3,40.3,46.9,38.7,32.5,80,55,27,30.21,30.06,5,0,7,0.00
2013-5-2,81.5,58.9,40.6,52.3,44.1,38.5,94,63,32,30.20,30.06,5,0,6,0.00
2013-5-3,69.6,57.2,45.3,44.8,41.7,38.7,83,59,37,30.16,30.07,5,0,7,0.00
2013-5-4,75.2,56.2,39.6,51.3,43.6,37.4,94,67,36,30.11,29.94,6,0,8,0.00
2013-5-5,69.4,53.6,39.4,48.0,42.2,36.7,92,68,44,30.01,29.92,3,0,3,0.00
2013-5-6,72.1,55.6,42.4,57.0,48.7,38.3,93,79,58,29.99,29.86,5,0,7,0.00
2013-5-7,66.9,62.9,59.0,60.8,58.8,56.8,94,87,80,29.82,29.79,3,0,3,0.00
2013-5-8,73.8,62.5,57.9,65.3,59.2,54.7,97,90,68,29.80,29.67,6,0,6,0.00
2013-5-9,73.6,62.0,55.2,61.3,56.7,54.0,96,84,63,29.72,29.66,8,0,11,0.00
2013-5-10,85.1,68.7,54.1,65.5,58.7,52.9,96,74,42,29.76,29.65,9,0,13,0.00
2013-5-11,75.6,64.8,60.1,67.5,62.3,58.3,97,92,74,29.68,29.46,7,0,11,0.00
2013-5-12,63.3,57.5,44.2,58.3,44.5,31.1,94,65,36,29.72,29.46,11,2,17,0.00
2013-5-13,58.1,47.5,39.2,38.3,33.3,29.5,77,59,37,29.87,29.72,10,1,14,0.00
2013-5-14,66.0,49.2,33.1,40.1,34.3,30.6,91,60,33,29.91,29.78,9,0,10,0.00
2013-5-15,76.8,62.5,50.5,61.3,51.1,34.3,82,67,54,29.82,29.46,6,0,9,0.00
2013-5-16,85.3,69.0,57.2,68.9,60.4,54.1,95,76,44,29.62,29.47,5,0,7,0.00
2013-5-17,83.8,65.4,53.2,55.0,48.3,42.6,82,56,31,29.94,29.62,8,0,10,0.00
2013-5-18,69.4,60.2,55.0,56.5,52.6,46.2,94,77,62,30.02,29.94,6,0,7,0.00
2013-5-19,62.4,60.7,59.0,61.2,59.5,58.1,97,96,95,29.97,29.90,0,0,0,0.00
2013-5-20,82.0,68.2,57.4,71.2,63.9,56.5,98,87,69,29.91,29.73,6,0,6,0.00
2013-5-21,89.4,75.2,63.1,74.7,68.8,61.9,97,82,58,29.74,29.62,7,0,7,0.00
2013-5-22,91.6,77.2,67.3,76.5,70.6,65.7,96,82,53,29.68,29.58,7,0,8,0.00
2013-5-23,80.2,71.9,64.9,72.7,68.7,63.3,96,90,70,29.65,29.51,7,0,12,0.00
2013-5-24,64.6,53.9,44.4,63.3,51.0,39.0,98,90,75,29.78,29.47,10,2,20,0.00
2013-5-25,63.3,52.3,44.2,45.3,40.4,35.6,92,66,42,29.81,29.72,10,3,19,0.00
2013-5-26,73.2,57.9,45.1,48.7,40.9,36.0,73,55,34,29.96,29.78,9,2,15,0.00
2013-5-27,73.0,55.9,41.5,47.8,41.6,34.9,88,62,37,30.01,29.90,5,0,7,0.00
2013-5-29,86.2,78.5,74.1,69.6,68.2,67.3,86,71,57,29.85,29.78,1,0,1,0.00
2013-5-30,95.4,79.4,68.5,73.2,67.9,65.5,91,71,41,29.91,29.83,4,0,4,0.00
2013-5-31,95.7,78.4,70.2,67.8,66.4,63.1,89,70,38,29.89,29.77,6,0,8,0.00
2013-6-1,91.4,86.0,78.4,72.9,71.0,68.9,76,62,53,29.76,29.67,0,0,0,0.00
2013-6-2,87.6,82.9,74.1,74.3,71.8,70.2,89,70,62,29.67,29.56,6,1,9,0.00
2013-6-3,83.3,82.3,81.7,71.0,69.7,69.1,66,66,66,29.57,29.57,0,0,0,0.00
2013-6-4,77.4,77.0,76.3,55.8,54.7,54.1,49,46,43,29.78,29.78,0,0,0,0.00
2013-6-5,88.3,75.7,61.2,57.0,54.2,51.1,74,49,34,29.88,29.83,4,0,4,0.00
2013-6-6,75.9,63.4,54.5,62.8,56.6,50.4,97,81,47,29.88,29.71,29,1,29,0.00
2013-6-7,65.1,62.5,59.7,64.4,61.8,58.8,99,98,97,29.71,29.37,10,0,12,0.00
2013-6-8,80.2,68.3,59.0,69.6,63.1,11.1,99,84,61,29.83,29.37,6,0,7,0.00
2013-6-9,90.7,72.2,57.6,68.5,62.0,56.1,96,73,47,29.94,29.83,4,0,4,0.00
2013-6-10,71.4,68.7,64.8,70.5,66.7,62.8,98,94,81,29.90,29.53,6,0,10,0.00
2013-6-11,81.7,73.0,65.8,71.2,67.2,62.4,98,83,65,29.53,29.44,29,2,29,0.00
2013-6-12,83.5,75.3,64.6,67.1,62.9,59.9,87,67,50,29.60,29.54,9,2,12,0.00
2013-6-13,74.5,65.8,58.5,69.8,61.3,57.0,96,86,71,29.57,29.19,6,0,7,0.00
2013-6-14,80.1,59.6,54.0,61.9,55.1,52.3,97,88,51,29.59,29.28,9,1,10,0.00
2013-6-15,81.3,72.5,56.5,65.1,59.9,54.1,92,66,50,29.79,29.70,57,2,57,0.00
2013-6-16,85.3,71.2,59.7,69.1,61.9,54.1,92,74,49,29.76,29.57,7,0,10,0.00
2013-6-17,88.9,75.5,66.0,74.7,67.4,63.9,94,78,54,29.69,29.60,8,0,12,0.00
2013-6-18,79.3,68.2,63.7,71.6,66.1,62.8,98,94,77,29.67,29.56,4,0,4,0.00
2013-6-19,91.0,69.7,56.8,62.8,57.9,53.8,98,71,35,29.91,29.63,29,0,29,0.00
2013-6-20,87.4,70.1,55.6,64.0,57.7,51.4,93,67,44,30.02,29.91,5,0,6,0.00
2013-6-21,89.8,72.6,56.8,63.5,57.0,49.5,81,60,40,30.06,29.98,8,0,8,0.00
2013-6-22,90.1,73.7,57.6,71.8,63.4,54.3,92,72,52,30.02,29.87,7,0,8,0.00
2013-6-23,91.8,76.7,64.9,76.1,69.3,62.2,92,79,55,29.96,29.81,6,0,8,0.00
2013-6-24,94.8,79.8,71.6,78.3,71.4,65.7,96,77,50,29.85,29.74,7,0,8,0.00
2013-6-25,71.6,67.8,14.2,65.7,63.3,-10.8,90,86,81,29.78,29.72,0,0,0,0.00
2013-6-26,90.7,86.3,81.0,77.5,74.1,69.8,77,67,57,29.64,29.55,86,10,86,0.00
2013-6-28,76.8,76.8,76.8,70.9,70.9,70.9,82,82,82,29.31,29.31,0,0,0,0.00
2013-7-5,93.7,93.7,93.7,77.2,77.2,77.2,59,59,59,29.87,29.87,0,0,0,0.00
2013-7-6,99.7,90.3,81.3,79.0,76.1,73.8,80,64,49,29.91,29.80,7,0,8,0.00
2013-7-7,94.6,81.4,70.3,80.2,73.9,69.1,97,79,58,29.85,29.72,11,0,13,0.00
2013-7-8,88.0,75.7,68.4,75.2,70.2,67.3,98,85,60,29.83,29.76,4,0,8,0.00
2013-7-9,89.4,78.1,70.0,76.8,72.1,68.0,94,83,65,29.84,29.76,6,0,7,0.00
2013-7-10,91.0,80.5,74.1,77.4,74.6,71.4,95,83,64,29.78,29.58,7,0,9,0.00
2013-7-11,91.0,78.8,73.0,75.4,71.7,63.5,94,80,58,29.68,29.57,5,0,5,0.00
2013-7-12,76.5,71.7,68.7,70.5,66.4,62.1,98,84,70,29.80,29.67,5,0,8,0.00
2013-7-13,91.0,77.0,68.7,78.4,73.1,67.6,99,89,64,30.05,29.80,5,0,5,0.00
2013-7-14,95.5,82.0,73.0,78.6,74.6,71.1,99,81,53,30.11,30.01,6,0,8,0.00
2013-7-15,97.9,83.7,71.6,81.5,75.0,69.1,94,77,55,30.04,29.91,7,0,8,0.00
2013-7-16,103.3,84.7,72.9,79.7,73.9,70.0,93,72,46,29.98,29.90,8,0,9,0.00
2013-7-17,101.3,85.6,72.0,78.8,73.6,69.4,94,70,45,29.96,29.83,3,0,3,0.00
2013-7-18,100.8,87.1,75.7,82.4,76.3,71.2,88,72,52,29.85,29.73,4,0,7,0.00
2013-7-19,98.4,87.5,79.3,83.1,78.9,74.5,92,77,56,29.77,29.58,6,0,10,0.00
2013-7-20,93.2,83.2,75.7,79.5,73.8,69.6,83,74,56,29.62,29.52,8,0,10,0.00
2013-7-21,95.5,80.8,73.2,78.8,72.5,69.3,88,77,54,29.70,29.60,2,0,2,0.00
2013-7-22,90.0,77.1,71.8,81.0,73.2,69.3,98,89,70,29.70,29.53,3,0,3,0.00
2013-7-23,89.1,77.3,70.2,78.3,72.5,69.4,99,87,61,29.53,29.36,7,0,8,0.00
2013-7-24,88.0,74.7,64.0,71.2,66.3,54.9,93,76,50,29.70,29.40,7,0,12,0.00
2013-7-25,76.6,65.7,57.9,63.5,57.7,52.9,87,76,59,29.80,29.68,6,0,7,0.00
2013-7-26,88.0,71.9,59.0,66.9,61.5,57.2,95,72,45,29.81,29.76,7,0,10,0.00
2013-7-27,90.0,74.7,60.6,71.1,65.0,58.5,96,74,49,29.81,29.68,6,0,7,0.00
2013-7-28,84.4,73.0,66.0,76.1,68.7,62.6,96,87,73,29.73,29.64,7,0,8,0.00
2013-7-29,84.6,73.1,65.1,67.5,63.3,57.4,98,75,45,29.88,29.71,7,0,11,0.00
2013-7-30,84.9,70.4,57.9,67.1,60.5,55.6,92,73,47,29.95,29.87,8,0,9,0.00
2013-7-31,85.3,72.5,59.0,66.6,62.9,57.2,95,74,50,29.92,29.79,4,0,4,0.00
2013-8-1,75.2,69.1,65.5,73.9,66.8,62.6,98,93,81,29.79,29.58,2,0,2,0.00
2013-8-2,86.2,74.7,66.0,70.2,66.7,62.4,99,79,51,29.70,29.57,6,0,8,0.00
2013-8-3,79.9,70.3,65.8,69.8,65.3,61.2,94,85,70,29.70,29.63,5,0,5,0.00
2013-8-4,81.1,69.8,59.4,65.5,61.2,56.1,98,77,50,29.76,29.62,7,1,12,0.00
2013-8-5,80.8,67.0,54.3,61.0,56.3,52.0,93,71,47,29.84,29.75,6,0,8,0.00
2013-8-6,82.6,67.9,56.5,66.7,60.2,54.1,94,78,50,29.86,29.79,5,0,5,0.00
2013-8-7,76.8,70.6,65.8,70.3,67.2,63.0,95,89,77,29.87,29.80,5,0,5,0.00
2013-8-8,88.7,76.7,68.5,78.6,72.4,67.5,98,88,69,29.81,29.73,10,0,11,0.00
2013-8-9,85.5,77.9,73.6,78.8,74.7,71.6,96,91,78,29.76,29.58,8,0,9,0.00
2013-8-10,86.5,76.1,68.4,73.8,68.8,65.3,98,80,54,29.81,29.64,8,0,8,0.00
2013-8-11,87.6,74.3,61.3,70.2,64.3,57.7,95,73,51,29.89,29.77,4,0,4,0.00
2013-8-12,90.0,76.7,69.4,73.6,69.0,65.5,96,79,51,29.79,29.68,4,0,4,0.00
2013-8-13,83.5,73.3,64.8,73.9,69.4,63.9,98,89,68,29.68,29.47,4,0,4,0.00
2013-8-14,75.6,65.8,55.2,66.9,55.9,49.3,90,72,52,29.82,29.54,11,2,14,0.00
2013-8-15,84.4,65.5,51.1,60.4,54.7,49.6,95,72,40,29.91,29.82,5,0,6,0.00
2013-8-16,86.5,68.9,53.6,63.7,57.2,51.8,95,70,39,29.96,29.88,3,0,3,0.00
2013-8-17,85.6,70.3,56.7,64.9,59.2,54.7,95,71,44,30.02,29.96,2,0,2,0.00
2013-8-18,78.6,68.4,62.6,65.3,61.9,57.6,94,81,59,30.01,29.90,2,0,2,0.00
2013-8-19,79.3,68.7,60.4,69.1,64.0,59.2,96,86,69,29.91,29.81,4,0,4,0.00
2013-8-20,90.9,74.6,62.8,73.6,67.2,61.9,98,80,51,29.90,29.82,3,0,3,0.00
2013-8-21,92.1,77.4,64.0,73.0,68.1,62.2,96,76,46,29.95,29.81,2,0,2,0.00
2013-8-22,84.7,75.9,70.5,75.9,72.2,68.2,96,89,72,29.83,29.65,7,0,14,0.00
2013-8-23,86.5,71.2,64.0,70.7,65.1,58.6,97,82,59,29.86,29.67,4,0,6,0.00
2013-8-24,86.2,70.9,59.2,64.0,57.4,53.4,86,65,38,30.10,29.86,5,0,7,0.00
2013-8-25,84.4,68.0,53.4,63.9,57.3,51.8,96,72,45,30.17,30.00,7,0,7,0.00
2013-8-26,87.4,73.5,63.1,71.6,63.7,56.7,86,72,53,30.01,29.69,7,0,8,0.00
2013-8-27,93.6,78.9,69.1,74.3,69.5,65.7,91,75,53,29.70,29.63,7,0,11,0.00
2013-8-28,73.0,71.1,68.9,72.3,69.8,66.9,98,96,89,29.66,29.59,0,0,0,0.00
2013-8-29,85.3,74.4,69.6,75.0,70.6,65.8,99,89,67,29.79,29.63,1,0,1,0.00
2013-8-30,84.6,74.5,66.7,75.4,69.8,65.1,95,86,72,29.79,29.63,5,0,6,0.00
2013-8-31,89.8,78.1,70.5,77.9,72.9,68.7,96,85,66,29.65,29.55,6,0,9,0.00
2013-9-1,92.5,79.0,71.2,79.9,73.4,69.8,98,85,58,29.61,29.53,5,0,7,0.00
2013-9-2,88.7,76.0,70.7,76.3,72.6,68.0,98,90,67,29.55,29.46,5,0,5,0.00
2013-9-3,83.1,73.0,62.8,71.2,65.2,57.2,97,78,52,29.68,29.47,9,1,10,0.00
2013-9-4,82.2,69.2,57.0,66.6,59.7,55.0,94,74,50,29.80,29.66,6,0,9,0.00
2013-9-5,82.0,68.4,57.6,68.4,57.5,48.7,89,70,41,29.90,29.72,6,0,10,0.00
2013-9-6,78.4,61.9,48.4,53.6,48.1,44.4,87,64,37,30.01,29.89,5,0,8,0.00
2013-9-7,82.4,63.8,46.9,60.6,52.5,45.0,94,70,41,29.89,29.67,3,0,3,0.00
2013-9-8,86.4,70.5,57.9,70.0,60.9,48.0,92,73,50,29.84,29.61,8,0,11,0.00
2013-9-9,78.3,64.3,49.1,63.5,55.1,45.1,87,73,54,29.98,29.83,5,0,5,0.00
2013-9-10,90.1,77.1,66.7,77.5,71.0,62.6,93,82,65,29.93,29.82,4,0,7,0.00
2013-9-11,96.4,82.5,72.9,80.8,74.8,71.2,96,79,56,29.89,29.75,7,0,10,0.00
2013-9-12,91.0,77.0,68.4,77.4,71.9,66.9,97,85,64,29.76,29.48,6,0,11,0.00
2013-9-13,78.3,67.4,55.2,67.5,60.8,49.8,98,81,55,29.65,29.42,9,1,13,0.00
2013-9-14,65.8,55.8,47.1,54.5,48.6,44.6,93,78,59,29.90,29.65,8,1,15,0.00
2013-9-15,77.2,58.4,43.0,57.0,49.9,41.5,96,76,47,29.98,29.84,4,0,4,0.00
2013-9-16,75.2,62.1,53.4,63.1,56.3,48.7,96,83,57,29.99,29.79,8,0,10,0.00
2013-9-17,72.1,55.4,41.9,48.7,44.2,39.7,93,69,40,30.17,29.99,7,0,8,0.00
2013-9-18,76.3,57.0,42.1,52.9,46.2,40.1,94,71,38,30.10,29.94,3,0,3,0.00
2013-9-19,80.6,61.7,46.6,61.7,52.3,45.1,95,75,45,29.95,29.83,4,0,4,0.00
2013-9-20,83.8,66.0,51.6,65.5,57.4,50.2,96,77,48,29.84,29.72,3,0,3,0.00
2013-9-21,81.5,66.8,52.5,65.7,59.9,51.1,97,81,49,29.75,29.44,8,0,10,0.00
2013-9-22,72.7,60.7,51.1,61.0,53.4,44.8,99,79,50,29.69,29.44,11,1,13,0.00
2013-9-23,69.4,55.5,44.8,52.2,45.5,40.6,88,70,49,29.81,29.68,10,1,12,0.00
2013-9-24,74.8,55.6,39.6,57.2,46.9,37.6,94,75,47,29.83,29.66,6,0,8,0.00
2013-9-25,79.0,58.8,44.2,55.4,48.6,41.5,91,72,43,29.73,29.63,5,0,5,0.00
2013-9-26,78.4,60.9,47.5,62.4,53.8,45.9,95,80,55,29.84,29.68,6,0,7,0.00
2013-9-27,75.9,61.7,52.0,60.4,54.5,49.8,95,79,52,30.01,29.84,3,0,3,0.00
2013-9-28,78.1,62.6,52.3,60.1,53.4,49.8,95,75,44,30.07,29.98,5,0,5,0.00
2013-9-29,78.4,60.3,47.3,60.4,52.7,45.7,96,79,50,29.98,29.82,6,0,8,0.00
2013-9-30,78.3,59.4,46.9,59.5,52.2,45.5,96,80,48,29.84,29.74,3,0,3,0.00
2013-10-1,82.0,64.7,52.3,66.7,57.5,50.5,95,79,54,29.79,29.69,8,0,11,0.00
2013-10-2,85.8,69.2,56.5,68.5,61.4,55.0,96,78,51,29.79,29.70,8,0,10,0.00
2013-10-3,84.9,70.2,57.0,66.4,61.8,55.2,95,77,50,29.88,29.79,0,0,0,0.00
2013-10-4,88.5,72.6,62.1,71.6,65.5,60.4,97,80,54,29.83,29.74,5,0,7,0.00
2013-10-5,91.6,74.6,63.3,72.1,67.1,61.9,96,80,51,29.84,29.75,0,0,0,0.00
2013-10-6,81.3,69.4,64.8,71.8,66.6,63.5,97,91,72,29.82,29.72,4,0,4,0.00
2013-10-7,78.1,65.3,53.1,72.5,63.2,48.9,97,93,82,29.76,29.50,12,1,16,0.00
2013-10-8,70.0,55.8,45.7,53.1,48.3,43.9,95,78,51,30.06,29.76,8,0,11,0.00
2013-10-9,61.9,54.6,46.9,51.4,47.7,42.4,86,78,67,30.11,29.99,7,0,12,0.00
2013-10-10,58.3,54.9,50.5,56.7,52.9,48.4,98,93,82,30.00,29.76,7,0,10,0.00
2013-10-11,62.2,59.5,56.5,61.3,58.4,55.0,98,97,92,29.81,29.71,10,0,14,0.00
2013-10-12,73.8,63.7,57.4,60.3,54.5,46.0,94,73,49,29.97,29.79,8,0,10,0.00
2013-10-13,69.3,59.8,11.8,56.5,52.0,9.1,92,76,56,30.11,29.97,6,0,8,0.00
2013-10-14,73.9,56.7,45.9,57.6,50.3,44.4,96,82,50,30.10,29.98,1,0,1,0.00
2013-10-15,76.6,57.8,45.1,60.6,49.4,43.7,97,77,47,30.00,29.85,4,0,4,0.00
2013-10-16,67.8,58.7,48.6,61.5,55.5,46.0,95,90,78,29.85,29.67,0,0,0,0.00
2013-10-17,75.9,65.2,59.5,65.5,61.8,57.7,96,89,68,29.67,29.46,6,0,11,0.00
2013-10-18,66.6,56.8,46.6,60.6,47.6,41.9,88,72,54,29.75,29.49,11,2,15,0.00
2013-10-19,66.4,52.9,42.3,54.5,47.0,40.3,95,82,54,29.75,29.52,5,0,9,0.00
2013-10-20,63.3,51.4,43.3,51.6,42.2,38.3,96,72,47,29.82,29.54,8,1,11,0.00
2013-10-21,70.2,52.9,39.0,47.5,42.0,36.5,92,70,40,29.89,29.71,8,0,9,0.00
2013-10-22,64.2,52.7,43.0,53.8,46.6,33.8,94,80,65,29.72,29.53,5,0,11,0.00
2013-10-23,61.0,46.2,39.0,45.3,38.0,33.8,87,74,55,29.58,29.37,8,0,11,0.00
2013-10-24,52.3,41.8,35.2,37.6,33.0,29.1,92,73,49,29.79,29.54,7,1,13,0.00
2013-10-25,55.9,42.3,32.7,39.9,33.4,28.9,87,72,48,29.99,29.79,12,1,13,0.00
2013-10-26,57.0,44.0,32.5,36.7,32.6,28.8,87,66,44,29.99,29.65,9,0,14,0.00
2013-10-27,59.4,47.6,38.8,41.2,34.9,31.5,77,62,43,29.88,29.63,7,0,11,0.00
2013-10-28,64.2,46.0,33.1,44.6,35.9,29.7,89,70,45,30.04,29.88,6,0,7,0.00
2013-10-29,64.8,48.9,39.4,46.8,38.8,32.9,90,70,45,30.14,30.04,3,0,3,0.00
2013-10-30,62.8,49.9,40.3,54.7,46.5,37.8,93,88,75,30.09,29.92,0,0,0,0.00
2013-10-31,66.0,58.5,48.6,61.7,55.6,47.1,97,91,79,29.97,29.53,7,1,11,0.00
2013-11-1,70.9,63.3,52.9,64.2,59.0,51.4,96,87,65,29.54,29.32,13,1,26,0.00
2013-11-2,69.1,55.6,47.3,53.8,47.7,40.3,96,76,52,29.55,29.39,6,0,8,0.00
2013-11-3,57.4,44.1,30.0,42.3,33.8,21.0,89,68,43,30.19,29.55,9,1,14,0.00
2013-11-4,52.2,36.1,25.3,27.0,22.4,19.6,80,60,33,30.38,30.19,6,0,11,0.00
2013-11-5,60.4,46.0,31.6,46.0,36.9,24.6,87,71,57,30.36,30.21,2,0,2,0.00
2013-11-6,68.5,55.3,46.2,52.9,48.2,42.4,90,78,55,30.22,29.81,6,0,7,0.00
2013-11-7,59.9,52.3,40.6,57.2,49.7,36.3,95,91,78,29.81,29.55,10,0,15,0.00
2013-11-8,49.6,40.7,34.7,37.0,31.0,27.1,83,69,52,30.00,29.73,10,1,18,0.00
2013-11-9,54.5,41.0,31.1,35.8,30.4,26.1,82,67,43,30.05,29.73,7,0,12,0.00
2013-11-10,58.1,46.4,38.1,41.0,33.7,30.2,81,62,45,29.87,29.63,10,2,17,0.00
2013-11-11,57.4,46.4,34.5,38.7,33.4,27.0,76,61,45,29.99,29.72,8,1,11,0.00
2013-11-12,49.3,36.0,24.1,38.1,25.1,16.0,83,65,51,30.07,29.69,14,2,16,0.00
2013-11-13,44.8,31.3,22.3,23.4,18.7,13.6,71,60,42,30.14,30.04,12,1,17,0.00
2013-11-14,55.0,40.1,28.6,27.7,21.9,18.7,73,51,26,30.04,29.93,7,1,13,0.00
2013-11-15,59.9,45.2,34.5,37.4,31.7,26.4,81,61,35,30.00,29.90,3,0,3,0.00
2013-11-16,64.0,49.8,41.5,49.3,43.8,33.1,94,81,57,30.07,29.98,3,0,3,0.00
2013-11-17,69.4,57.4,49.1,59.0,53.2,46.8,95,87,67,30.00,29.51,8,0,10,0.00
2013-11-18,64.8,57.5,46.6,60.6,43.0,28.6,96,61,36,29.60,29.39,12,2,21,0.00
2013-11-19,50.4,41.6,30.0,32.9,27.8,21.6,71,58,48,30.09,29.60,12,2,23,0.00
2013-11-20,50.9,35.5,27.3,26.4,19.5,11.1,77,55,30,30.32,30.09,6,0,7,0.00
2013-11-21,55.9,41.1,27.9,41.4,30.2,14.7,78,66,53,30.32,30.13,4,0,6,0.00
2013-11-22,56.1,50.7,48.0,50.0,46.8,41.4,96,87,78,30.13,29.70,5,0,7,0.00
2013-11-23,50.5,39.3,27.0,47.8,29.1,13.8,95,68,51,29.83,29.70,13,3,18,0.00
2013-11-24,32.2,24.1,20.1,14.4,7.0,4.1,59,48,36,30.16,29.82,11,4,20,0.00
2013-11-25,37.6,26.6,18.5,18.5,14.1,8.2,77,60,43,30.25,30.06,11,1,13,0.00
2013-11-26,46.2,34.4,30.4,45.3,27.9,18.5,97,79,60,30.07,29.39,6,0,6,0.00
2013-11-27,60.6,40.8,29.8,59.9,38.4,20.8,98,91,69,29.59,29.16,11,3,21,0.00
2013-11-28,36.7,29.6,26.2,22.3,19.5,17.4,71,66,52,30.20,29.58,10,2,18,0.00
2013-11-29,42.4,29.5,21.9,27.3,20.6,16.7,85,70,51,30.45,30.19,8,0,13,0.00
2013-11-30,42.3,29.7,19.8,29.3,21.5,13.5,81,72,60,30.45,30.10,4,0,4,0.00
2013-12-1,49.1,36.7,26.2,34.5,29.3,23.7,91,75,54,30.10,29.76,3,0,3,0.00
2013-12-2,56.1,41.5,36.3,40.5,33.4,29.5,82,74,54,29.76,29.61,0,0,0,0.00
2013-12-3,54.3,43.1,37.8,43.3,36.0,32.9,90,77,54,29.75,29.63,4,0,4,0.00
2013-12-4,55.0,44.4,34.0,43.9,38.6,31.3,92,81,65,29.85,29.74,1,0,1,0.00
2013-12-5,58.3,52.3,46.9,57.2,50.8,43.9,97,95,88,29.84,29.67,8,0,9,0.00
2013-12-6,61.0,46.9,35.2,60.3,46.0,34.3,98,97,96,29.90,29.62,9,0,15,0.00
2013-12-7,40.6,33.6,27.9,34.5,30.1,22.8,97,88,72,30.25,29.83,9,1,15,0.00
2013-12-8,28.9,26.3,23.2,27.1,22.0,18.0,95,84,69,30.31,30.05,5,0,5,0.00
2013-12-9,34.5,32.7,28.4,33.6,31.7,27.0,98,96,95,30.05,29.72,6,0,7,0.00
2013-12-10,32.5,29.6,21.9,31.6,27.9,18.3,97,94,83,29.91,29.66,7,0,8,0.00
2013-12-11,33.1,24.4,17.1,21.2,17.7,13.8,89,76,58,30.09,29.90,10,0,11,0.00
2013-12-12,28.2,21.2,16.9,19.9,12.9,7.2,90,71,50,30.11,29.90,10,1,13,0.00
2013-12-13,35.4,26.6,17.2,20.3,15.2,7.2,73,62,52,30.06,29.88,9,1,12,0.00
2013-12-14,31.3,27.3,24.4,29.8,23.1,19.8,95,85,69,30.15,29.44,9,0,13,0.00
2013-12-15,37.6,31.6,26.8,33.4,27.8,21.9,96,86,68,29.61,29.30,8,1,15,0.00
2013-12-16,30.0,24.3,18.3,23.7,14.1,10.6,81,66,50,29.96,29.60,9,1,14,0.00
2013-12-17,29.7,23.5,18.7,26.1,19.7,14.7,92,86,69,29.94,29.67,3,0,3,0.00
2013-12-18,35.4,26.2,17.6,24.6,20.1,15.3,93,79,63,29.94,29.68,9,0,13,0.00
2013-12-19,49.3,34.3,23.0,32.4,26.2,18.9,88,73,51,29.94,29.78,4,0,4,0.00
2013-12-20,55.0,44.8,36.7,43.2,34.1,30.0,82,67,48,29.84,29.71,7,0,8,0.02
2013-12-21,67.5,53.8,41.2,57.2,48.8,39.2,96,84,66,29.75,29.64,8,0,10,0.00
2013-12-22,67.3,62.7,59.0,63.3,59.6,56.3,94,90,85,29.72,29.55,11,2,19,0.00
2013-12-23,59.7,52.9,39.0,58.1,50.9,33.1,98,93,79,29.91,29.65,10,1,13,0.00
2013-12-24,39.7,31.9,23.5,32.9,23.3,14.0,81,71,61,30.12,29.87,9,2,16,0.00
2013-12-25,30.0,23.4,16.7,15.6,12.2,7.7,71,63,50,30.27,30.12,8,0,12,0.00
2013-12-26,37.9,27.6,20.3,30.6,22.5,14.9,88,81,66,30.13,29.91,6,0,10,0.00
2013-12-27,45.0,31.0,21.7,27.7,22.3,18.3,89,72,46,30.11,30.01,9,0,11,0.00
2013-12-28,58.8,42.2,29.8,34.0,27.8,21.9,74,58,39,30.03,29.83,7,1,11,0.00
2013-12-29,44.1,41.2,37.8,41.2,35.4,29.3,97,82,57,29.83,29.20,6,0,8,0.00
2013-12-30,43.0,35.8,22.3,39.4,30.0,14.9,95,80,66,29.91,29.49,9,1,12,0.00
2013-12-31,34.2,25.9,19.8,27.7,17.3,12.7,81,70,58,30.04,29.79,9,1,15,0.00
2014-1-1,37.8,28.3,19.9,25.3,19.4,11.8,77,70,59,30.14,29.92,3,0,4,0.00
2014-1-2,29.8,26.2,16.2,24.8,22.0,13.8,92,85,73,29.92,29.38,6,0,11,0.00